Time;durP1;ratioP1;P1;durP2;ratioP2;P2;SDS_P1;SDS_P2;PMS_P1;PMS_P2;Temp;Humidity;BMP_temperature;BMP_pressure;BME280_temperature;BME280_humidity;BME280_pressure;Samples;Min_cycle;Max_cycle;Signal;HPM_P1;HPM_P2
2023/08/01 00:00:19;;;;;;;6.57;1.90;;;;;;;20.52;59.73;99350.38;4490285;31;32884;-77
2023/08/01 00:02:47;;;;;;;3.83;1.87;;;;;;;20.66;59.36;99347.75;4478960;32;34613;-77
2023/08/01 00:05:15;;;;;;;6.07;2.10;;;;;;;20.57;59.88;99348.62;4494754;31;33850;-77
2023/08/01 00:07:42;;;;;;;4.25;1.90;;;;;;;20.48;59.89;99346.00;4490500;31;33955;-77
2023/08/01 00:10:10;;;;;;;5.82;2.00;;;;;;;20.83;58.87;99349.44;4482598;31;33337;-77
2023/08/01 00:12:38;;;;;;;4.05;1.90;;;;;;;20.74;59.36;99350.34;4484460;31;32109;-77
2023/08/01 00:15:06;;;;;;;4.53;1.92;;;;;;;20.77;59.37;99352.97;4489748;31;33763;-77
2023/08/01 00:17:34;;;;;;;6.97;2.00;;;;;;;20.70;58.87;99352.09;4496476;31;33361;-77
2023/08/01 00:20:03;;;;;;;3.70;1.90;;;;;;;20.55;59.40;99342.50;4480857;31;33071;-77
2023/08/01 00:22:31;;;;;;;5.47;2.20;;;;;;;20.13;61.91;99343.47;4483905;31;33669;-77
2023/08/01 00:24:59;;;;;;;4.28;2.20;;;;;;;20.20;61.63;99353.06;4491817;31;34147;-77
2023/08/01 00:27:28;;;;;;;4.40;1.85;;;;;;;19.97;62.35;99350.47;4482933;31;34009;-77
2023/08/01 00:30:08;;;;;;;4.68;2.08;;;;;;;19.88;62.91;99348.72;4485928;31;32611;-76
2023/08/01 00:32:36;;;;;;;5.53;1.97;;;;;;;20.01;62.54;99345.22;4481983;31;33652;-77
2023/08/01 00:35:07;;;;;;;4.72;1.98;;;;;;;20.09;61.90;99347.84;4493193;31;32779;-77
2023/08/01 00:37:34;;;;;;;5.03;2.20;;;;;;;20.20;61.42;99346.09;4489213;31;33735;-77
2023/08/01 00:40:03;;;;;;;3.97;1.92;;;;;;;19.83;63.11;99343.47;4484197;31;32790;-77
2023/08/01 00:42:30;;;;;;;5.43;2.00;;;;;;;19.75;63.29;99336.47;4484802;31;33584;-77
2023/08/01 00:44:59;;;;;;;5.82;1.95;;;;;;;20.18;60.42;99332.03;4491428;31;33666;-77
2023/08/01 00:47:28;;;;;;;4.40;2.10;;;;;;;20.02;61.86;99336.44;4481402;32;34135;-77
2023/08/01 00:49:57;;;;;;;4.85;1.92;;;;;;;20.12;61.75;99328.56;4482391;31;33896;-77
2023/08/01 00:52:25;;;;;;;5.60;2.28;;;;;;;20.27;60.46;99323.25;4487284;31;33552;-77
2023/08/01 00:54:53;;;;;;;4.27;1.97;;;;;;;19.96;60.46;99325.06;4490208;31;33680;-77
2023/08/01 00:57:21;;;;;;;5.55;2.00;;;;;;;20.26;60.45;99323.25;4478375;31;34130;-77
2023/08/01 00:59:49;;;;;;;5.05;2.17;;;;;;;20.09;60.17;99316.28;4484371;31;32899;-77
2023/08/01 01:02:17;;;;;;;4.72;1.95;;;;;;;20.00;61.42;99311.03;4489481;31;34460;-77
2023/08/01 01:04:45;;;;;;;5.00;2.10;;;;;;;19.74;63.49;99317.22;4489160;31;33559;-75
2023/08/01 01:07:13;;;;;;;4.95;2.05;;;;;;;19.75;63.43;99308.44;4487585;31;34255;-75
2023/08/01 01:09:41;;;;;;;4.28;1.98;;;;;;;20.11;62.31;99303.12;4483391;31;32883;-75
2023/08/01 01:12:10;;;;;;;4.87;2.03;;;;;;;20.22;61.74;99309.25;4484620;31;33693;-75
2023/08/01 01:14:38;;;;;;;5.22;2.00;;;;;;;20.28;61.56;99310.97;4493616;31;33610;-75
2023/08/01 01:17:06;;;;;;;5.30;2.10;;;;;;;20.53;60.39;99311.78;4484681;31;33917;-75
2023/08/01 01:19:34;;;;;;;4.28;1.95;;;;;;;20.65;60.16;99309.16;4485274;31;33566;-75
2023/08/01 01:22:04;;;;;;;4.65;1.92;;;;;;;20.43;60.88;99313.56;4497217;31;33669;-75
2023/08/01 01:24:33;;;;;;;4.45;1.92;;;;;;;20.54;60.44;99303.91;4483439;31;33350;-75
2023/08/01 01:27:04;;;;;;;5.50;2.30;;;;;;;20.47;60.41;99307.41;4479937;32;32723;-75
2023/08/01 01:29:32;;;;;;;6.30;2.10;;;;;;;20.27;61.29;99301.34;4490417;31;33504;-75
2023/08/01 01:32:01;;;;;;;5.75;1.98;;;;;;;20.11;60.99;99306.66;4481101;31;33266;-75
2023/08/01 01:34:28;;;;;;;5.32;2.15;;;;;;;20.18;60.82;99295.22;4483806;31;34109;-75
2023/08/01 01:36:56;;;;;;;4.55;1.98;;;;;;;20.11;60.67;99293.50;4458931;32;34385;-75
2023/08/01 01:39:23;;;;;;;5.18;2.20;;;;;;;19.75;63.20;99300.53;4492857;31;33484;-75
2023/08/01 01:41:51;;;;;;;5.20;2.15;;;;;;;19.48;64.62;99284.75;4490613;31;33699;-75
2023/08/01 01:44:19;;;;;;;5.12;2.08;;;;;;;19.38;64.85;99292.63;4484657;31;34283;-75
2023/08/01 01:46:49;;;;;;;6.50;2.30;;;;;;;19.48;65.05;99283.00;4487887;31;34691;-75
2023/08/01 01:49:17;;;;;;;4.35;2.08;;;;;;;19.57;64.64;99290.03;4490246;31;33177;-75
2023/08/01 01:51:44;;;;;;;5.77;2.27;;;;;;;19.52;64.20;99287.38;4482198;32;33899;-75
2023/08/01 01:54:12;;;;;;;5.43;2.37;;;;;;;19.20;65.84;99290.84;4493985;31;33711;-75
2023/08/01 01:56:40;;;;;;;5.90;2.30;;;;;;;19.57;64.09;99290.03;4493212;31;33924;-75
2023/08/01 01:59:08;;;;;;;5.60;2.10;;;;;;;19.43;64.12;99282.09;4484996;31;33268;-75
2023/08/01 02:01:35;;;;;;;5.62;2.30;;;;;;;19.84;62.33;99284.78;4488001;31;33557;-75
2023/08/01 02:04:03;;;;;;;4.75;2.00;;;;;;;19.33;65.37;99277.72;4462484;31;829083;-75
2023/08/01 02:06:31;;;;;;;5.50;2.25;;;;;;;19.47;64.78;99272.47;4483555;31;33691;-75
2023/08/01 02:08:58;;;;;;;4.75;2.20;;;;;;;19.13;66.13;99262.84;4487684;31;33935;-75
2023/08/01 02:11:27;;;;;;;4.05;2.00;;;;;;;19.69;63.46;99263.72;4483862;32;34423;-75
2023/08/01 02:13:55;;;;;;;5.75;2.20;;;;;;;19.73;63.11;99262.88;4484433;31;34349;-75
2023/08/01 02:16:22;;;;;;;5.00;2.10;;;;;;;19.79;63.04;99270.75;4484514;31;34669;-75
2023/08/01 02:18:50;;;;;;;4.68;2.10;;;;;;;19.82;61.76;99275.16;4485129;31;33784;-75
2023/08/01 02:21:17;;;;;;;4.93;2.20;;;;;;;19.76;61.74;99262.88;4491231;31;33651;-75
2023/08/01 02:23:45;;;;;;;4.47;2.20;;;;;;;19.48;63.60;99258.50;4489832;31;33827;-75
2023/08/01 02:26:13;;;;;;;4.82;2.12;;;;;;;19.41;65.02;99261.13;4484552;31;33702;-75
2023/08/01 02:28:40;;;;;;;4.10;2.17;;;;;;;19.48;63.50;99258.50;4486968;31;33373;-75
2023/08/01 02:31:08;;;;;;;6.72;2.35;;;;;;;18.99;66.07;99260.19;4483715;31;33816;-75
2023/08/01 02:33:35;;;;;;;5.32;2.30;;;;;;;18.73;67.61;99256.59;4483343;31;34731;-75
2023/08/01 02:36:03;;;;;;;5.17;2.10;;;;;;;19.02;66.33;99248.81;4477925;31;34529;-75
2023/08/01 02:38:31;;;;;;;6.25;2.30;;;;;;;18.77;67.54;99253.09;4487601;31;33307;-75
2023/08/01 02:40:58;;;;;;;5.82;2.20;;;;;;;19.12;65.91;99249.69;4488394;31;33779;-75
2023/08/01 02:43:26;;;;;;;4.55;1.95;;;;;;;18.88;67.07;99240.91;4490229;31;33854;-75
2023/08/01 02:45:54;;;;;;;4.60;2.28;;;;;;;19.54;63.75;99247.97;4487433;31;33860;-75
2023/08/01 02:48:21;;;;;;;4.65;2.20;;;;;;;18.88;66.68;99246.16;4484765;31;33120;-75
2023/08/01 02:50:49;;;;;;;5.68;2.28;;;;;;;18.70;67.84;99246.06;4485151;31;34457;-75
2023/08/01 02:53:16;;;;;;;5.28;2.12;;;;;;;18.78;67.64;99255.72;4495974;31;33855;-75
2023/08/01 02:55:46;;;;;;;5.60;2.33;;;;;;;19.05;65.85;99254.94;4481091;31;32173;-75
2023/08/01 02:58:14;;;;;;;4.93;2.20;;;;;;;18.95;66.74;99253.19;4488101;31;32913;-75
2023/08/01 03:00:42;;;;;;;6.22;1.90;;;;;;;18.84;67.68;99257.53;4488582;31;34260;-75
2023/08/01 03:03:10;;;;;;;5.40;2.20;;;;;;;19.11;66.53;99247.97;4487470;31;33798;-75
2023/08/01 03:05:38;;;;;;;4.93;2.17;;;;;;;18.92;67.10;99245.28;4492732;31;33659;-75
2023/08/01 03:08:06;;;;;;;6.05;2.33;;;;;;;19.00;66.87;99240.94;4479634;31;31728;-75
2023/08/01 03:10:34;;;;;;;5.12;2.30;;;;;;;18.82;67.59;99240.91;4482980;31;34211;-75
2023/08/01 03:13:04;;;;;;;6.78;2.20;;;;;;;19.03;66.79;99242.69;4491310;31;34413;-75
2023/08/01 03:15:32;;;;;;;4.25;1.95;;;;;;;18.74;67.79;99245.22;4484038;31;33142;-75
2023/08/01 03:18:00;;;;;;;6.93;2.40;;;;;;;18.83;67.58;99255.75;4496837;31;33838;-75
2023/08/01 03:20:29;;;;;;;4.68;2.10;;;;;;;19.07;66.39;99243.59;4482988;31;33556;-75
2023/08/01 03:22:57;;;;;;;6.35;2.50;;;;;;;19.52;63.57;99250.59;4489911;31;34381;-75
2023/08/01 03:25:25;;;;;;;5.25;2.30;;;;;;;18.99;66.14;99235.69;4495589;31;33866;-75
2023/08/01 03:27:54;;;;;;;5.68;2.45;;;;;;;18.84;67.38;99236.53;4486196;31;34186;-75
2023/08/01 03:30:22;;;;;;;4.60;2.30;;;;;;;19.01;66.37;99241.81;4482966;31;34581;-75
2023/08/01 03:32:49;;;;;;;5.25;2.47;;;;;;;18.76;68.40;99235.62;4483838;31;33932;-75
2023/08/01 03:35:17;;;;;;;5.30;2.05;;;;;;;18.74;68.16;99240.00;4489166;31;33723;-75
2023/08/01 03:37:46;;;;;;;6.90;2.50;;;;;;;18.58;68.80;99237.31;4487402;31;33830;-75
2023/08/01 03:40:13;;;;;;;5.20;2.22;;;;;;;19.10;66.13;99241.81;4483772;31;33556;-75
2023/08/01 03:42:41;;;;;;;6.45;2.58;;;;;;;19.31;64.71;99237.47;4483349;31;33389;-75
2023/08/01 03:45:10;;;;;;;5.75;2.53;;;;;;;19.23;65.77;99237.47;4482708;31;33373;-75
2023/08/01 03:47:37;;;;;;;5.43;2.28;;;;;;;19.43;64.72;99235.72;4482722;31;33392;-75
2023/08/01 03:50:05;;;;;;;5.47;2.40;;;;;;;19.20;64.78;99233.09;4483673;31;33624;-75
2023/08/01 03:52:33;;;;;;;6.37;2.28;;;;;;;19.20;65.56;99229.56;4482322;32;33744;-75
2023/08/01 03:55:00;;;;;;;6.78;2.47;;;;;;;18.83;68.26;99224.28;4489657;31;33646;-75
2023/08/01 03:57:28;;;;;;;5.00;2.20;;;;;;;18.78;68.48;99226.00;4491298;31;33096;-75
2023/08/01 03:59:55;;;;;;;5.65;2.10;;;;;;;19.14;67.15;99233.09;4487549;31;33724;-75
2023/08/01 04:02:23;;;;;;;4.85;2.40;;;;;;;19.24;66.92;99233.97;4472030;31;33856;-75
2023/08/01 04:04:51;;;;;;;4.90;2.22;;;;;;;19.24;66.57;99236.59;4497903;31;34415;-75
2023/08/01 04:07:18;;;;;;;5.30;2.33;;;;;;;19.91;64.45;99232.19;4488335;31;33160;-75
2023/08/01 04:09:46;;;;;;;5.55;2.37;;;;;;;19.51;65.32;99226.94;4490693;31;34263;-75
2023/08/01 04:12:14;;;;;;;5.43;2.42;;;;;;;19.81;63.74;99226.94;4485446;31;33655;-75
2023/08/01 04:14:42;;;;;;;5.30;2.42;;;;;;;19.32;66.21;99226.97;4489268;31;33662;-75
2023/08/01 04:17:09;;;;;;;5.60;2.30;;;;;;;19.24;66.25;99220.84;4489310;31;34255;-75
2023/08/01 04:19:37;;;;;;;4.55;2.10;;;;;;;19.33;66.66;99227.84;4493774;31;34346;-75
2023/08/01 04:22:04;;;;;;;5.62;2.50;;;;;;;19.14;67.39;99222.59;4484258;31;33486;-75
2023/08/01 04:24:32;;;;;;;5.25;2.40;;;;;;;19.11;67.84;99232.22;4494194;31;34312;-75
2023/08/01 04:27:00;;;;;;;3.92;2.08;;;;;;;19.26;67.40;99224.34;4482830;31;33064;-75
2023/08/01 04:29:27;;;;;;;7.70;2.45;;;;;;;19.02;68.50;99222.56;4488064;31;34168;-75
2023/08/01 04:31:54;;;;;;;7.03;2.50;;;;;;;19.51;67.07;99232.19;4494510;31;33952;-75
2023/08/01 04:34:22;;;;;;;6.75;2.70;;;;;;;19.44;67.19;99237.47;4484864;31;33923;-75
2023/08/01 04:36:50;;;;;;;6.18;2.70;;;;;;;19.75;66.12;99229.59;4488804;31;33289;-75
2023/08/01 04:39:17;;;;;;;6.50;2.60;;;;;;;19.88;65.81;99229.59;4493928;31;33602;-75
2023/08/01 04:41:45;;;;;;;6.87;2.95;;;;;;;19.81;65.99;99216.44;4485835;31;33352;-75
2023/08/01 04:44:12;;;;;;;6.20;2.40;;;;;;;19.49;67.60;99212.94;4492012;31;34604;-75
2023/08/01 04:46:40;;;;;;;7.18;3.00;;;;;;;19.33;68.36;99212.94;4488272;31;33374;-75
2023/08/01 04:49:08;;;;;;;6.43;3.30;;;;;;;19.75;66.20;99216.44;4493370;31;34411;-75
2023/08/01 04:51:35;;;;;;;8.75;3.30;;;;;;;19.37;67.97;99214.72;4486616;31;33694;-75
2023/08/01 04:54:03;;;;;;;7.93;3.40;;;;;;;19.77;66.43;99219.94;4482847;31;33848;-75
2023/08/01 04:56:30;;;;;;;6.97;3.23;;;;;;;19.55;67.45;99213.84;4488150;31;33339;-74
2023/08/01 04:58:58;;;;;;;7.05;3.15;;;;;;;19.50;67.82;99209.47;4488304;31;33498;-75
2023/08/01 05:01:25;;;;;;;9.35;3.65;;;;;;;19.59;67.67;99209.44;4477197;31;31222;-75
2023/08/01 05:03:53;;;;;;;6.53;3.00;;;;;;;19.62;67.35;99205.06;4493237;31;33355;-75
2023/08/01 05:06:21;;;;;;;5.87;3.00;;;;;;;19.54;68.11;99200.69;4495178;31;34069;-75
2023/08/01 05:08:48;;;;;;;7.07;2.90;;;;;;;19.97;66.66;99200.63;4487627;31;34464;-75
2023/08/01 05:11:16;;;;;;;6.77;3.10;;;;;;;19.89;66.90;99207.66;4498100;31;34656;-75
2023/08/01 05:13:44;;;;;;;6.62;2.87;;;;;;;19.97;66.74;99205.88;4486912;31;33014;-75
2023/08/01 05:16:11;;;;;;;8.07;3.00;;;;;;;20.32;65.72;99203.16;4486855;31;34019;-75
2023/08/01 05:18:39;;;;;;;7.22;2.90;;;;;;;20.67;64.67;99203.88;4494502;31;33640;-75
2023/08/01 05:21:06;;;;;;;6.10;2.75;;;;;;;20.37;65.83;99203.97;4487027;31;33774;-75
2023/08/01 05:23:34;;;;;;;7.65;2.95;;;;;;;20.46;65.80;99200.44;4483946;31;33032;-75
2023/08/01 05:26:02;;;;;;;6.87;2.92;;;;;;;20.57;64.99;99189.84;4484184;31;31583;-75
2023/08/01 05:28:30;;;;;;;6.30;2.58;;;;;;;20.58;64.82;99189.84;4490074;31;33837;-75
2023/08/01 05:30:58;;;;;;;5.67;2.80;;;;;;;20.75;64.19;99194.19;4491994;31;34624;-75
2023/08/01 05:33:25;;;;;;;5.53;2.78;;;;;;;20.93;63.46;99196.69;4485230;31;33757;-75
2023/08/01 05:35:53;;;;;;;5.37;2.87;;;;;;;20.96;63.04;99194.03;4486316;31;33437;-75
2023/08/01 05:38:20;;;;;;;6.43;2.83;;;;;;;20.96;62.28;99201.06;4487545;31;33831;-75
2023/08/01 05:40:48;;;;;;;6.30;2.80;;;;;;;21.04;62.65;99195.75;4488654;31;34004;-75
2023/08/01 05:43:16;;;;;;;6.63;3.20;;;;;;;21.09;62.51;99196.56;4488054;31;33929;-75
2023/08/01 05:45:43;;;;;;;6.80;2.90;;;;;;;21.17;62.66;99205.28;4492868;31;32751;-75
2023/08/01 05:48:13;;;;;;;7.68;3.20;;;;;;;21.23;62.81;99193.81;4490047;31;33234;-75
2023/08/01 05:50:41;;;;;;;6.72;3.40;;;;;;;21.48;62.24;99191.88;4494560;31;33235;-75
2023/08/01 05:53:08;;;;;;;7.73;3.20;;;;;;;21.54;61.94;99189.22;4486676;31;33997;-75
2023/08/01 05:55:36;;;;;;;8.73;3.40;;;;;;;21.46;62.41;99196.28;4489247;31;33119;-75
2023/08/01 05:58:04;;;;;;;7.03;3.60;;;;;;;21.51;62.03;99189.22;4492180;31;34971;-75
2023/08/01 06:00:31;;;;;;;8.45;3.80;;;;;;;21.95;61.38;99185.28;4490797;31;34836;-75
2023/08/01 06:03:00;;;;;;;8.32;3.60;;;;;;;21.83;61.77;99191.56;4479605;32;33538;-75
2023/08/01 06:05:28;;;;;;;8.35;3.72;;;;;;;21.89;61.87;99195.88;4492695;31;33161;-75
2023/08/01 06:07:55;;;;;;;7.47;3.83;;;;;;;22.23;61.27;99195.47;4474772;32;32295;-75
2023/08/01 06:10:23;;;;;;;9.90;3.80;;;;;;;22.41;60.88;99200.56;4475552;31;33329;-75
2023/08/01 06:12:50;;;;;;;9.23;3.70;;;;;;;22.49;60.37;99192.56;4489963;31;33850;-75
2023/08/01 06:15:18;;;;;;;10.35;3.58;;;;;;;22.44;60.71;99199.66;4489329;31;33309;-75
2023/08/01 06:17:46;;;;;;;8.95;3.60;;;;;;;22.74;59.92;99195.72;4484610;31;34574;-75
2023/08/01 06:20:13;;;;;;;7.60;3.50;;;;;;;22.56;60.40;99189.81;4487300;31;34279;-75
2023/08/01 06:22:42;;;;;;;8.47;3.50;;;;;;;22.85;59.71;99191.16;4469526;31;32993;-75
2023/08/01 06:25:10;;;;;;;7.55;3.40;;;;;;;22.75;59.65;99193.06;4485825;31;33883;-76
2023/08/01 06:27:37;;;;;;;8.73;3.20;;;;;;;22.92;59.07;99186.66;4489659;31;34537;-75
2023/08/01 06:30:06;;;;;;;8.10;3.30;;;;;;;22.93;59.03;99188.41;4482289;31;32934;-75
2023/08/01 06:32:34;;;;;;;7.50;2.83;;;;;;;23.35;58.59;99192.16;4490159;31;33667;-75
2023/08/01 06:35:02;;;;;;;7.50;2.67;;;;;;;23.46;57.17;99194.59;4495587;31;34083;-75
2023/08/01 06:37:29;;;;;;;5.85;2.60;;;;;;;23.52;57.24;99191.84;4478370;31;32101;-75
2023/08/01 06:39:58;;;;;;;6.20;2.47;;;;;;;23.72;56.96;99183.56;4493255;31;33840;-76
2023/08/01 06:42:25;;;;;;;5.57;2.50;;;;;;;24.04;54.71;99174.16;4476009;31;33900;-75
2023/08/01 06:44:53;;;;;;;7.00;2.65;;;;;;;23.93;55.22;99173.50;4477863;31;34152;-75
2023/08/01 06:47:20;;;;;;;6.75;2.85;;;;;;;24.10;55.43;99174.03;4494265;31;33552;-75
2023/08/01 06:49:48;;;;;;;6.80;2.80;;;;;;;24.17;55.14;99168.63;4484631;31;34211;-75
2023/08/01 06:52:15;;;;;;;7.78;2.80;;;;;;;24.41;55.35;99167.22;4491217;31;33637;-75
2023/08/01 06:54:43;;;;;;;7.47;2.75;;;;;;;24.69;54.18;99170.19;4490231;31;33613;-75
2023/08/01 06:57:11;;;;;;;6.57;2.80;;;;;;;24.69;54.15;99170.19;4488731;31;33501;-75
2023/08/01 06:59:38;;;;;;;6.25;2.67;;;;;;;24.73;54.29;99171.84;4486651;31;33811;-75
2023/08/01 07:02:08;;;;;;;6.15;2.42;;;;;;;24.92;53.38;99161.69;4491076;31;34363;-75
2023/08/01 07:04:36;;;;;;;6.50;2.80;;;;;;;25.04;53.85;99165.81;4489334;31;33765;-75
2023/08/01 07:07:04;;;;;;;6.20;3.05;;;;;;;25.27;52.96;99166.16;4489065;31;34158;-75
2023/08/01 07:09:33;;;;;;;5.47;2.72;;;;;;;25.61;52.58;99165.28;4490510;31;32549;-75
2023/08/01 07:12:01;;;;;;;5.60;2.60;;;;;;;25.72;51.36;99158.81;4480228;31;33602;-75
2023/08/01 07:14:28;;;;;;;6.45;3.12;;;;;;;25.82;51.13;99154.97;4491721;31;33977;-74
2023/08/01 07:16:56;;;;;;;7.68;3.20;;;;;;;26.22;49.53;99145.91;4492020;31;33451;-75
2023/08/01 07:19:23;;;;;;;7.00;3.40;;;;;;;26.04;50.30;99156.16;4476797;31;33304;-76
2023/08/01 07:21:51;;;;;;;9.95;3.50;;;;;;;26.11;49.94;99155.97;4488387;31;33539;-75
2023/08/01 07:24:19;;;;;;;9.80;4.00;;;;;;;26.20;50.75;99155.72;4487787;31;33257;-75
2023/08/01 07:26:46;;;;;;;10.30;4.00;;;;;;;26.57;50.08;99151.94;4488367;31;33719;-76
2023/08/01 07:29:15;;;;;;;9.35;4.00;;;;;;;26.74;48.99;99157.63;4488788;31;34170;-75
2023/08/01 07:31:45;;;;;;;8.73;3.28;;;;;;;27.06;47.90;99153.03;4488935;31;33834;-75
2023/08/01 07:34:16;;;;;;;8.65;3.60;;;;;;;27.13;47.42;99151.91;4491367;31;33815;-75
2023/08/01 07:36:48;;;;;;;7.55;3.10;;;;;;;27.21;47.89;99151.66;4496566;31;34550;-75
2023/08/01 07:39:16;;;;;;;9.45;3.10;;;;;;;27.87;45.80;99138.72;4488402;31;33829;-75
2023/08/01 07:41:44;;;;;;;7.63;2.83;;;;;;;28.05;44.11;99139.91;4495007;31;33721;-75
2023/08/01 07:44:11;;;;;;;8.23;2.83;;;;;;;28.11;45.26;99133.47;4485520;31;33120;-75
2023/08/01 07:46:39;;;;;;;8.13;2.90;;;;;;;28.51;44.84;99137.25;4487732;31;33468;-75
2023/08/01 07:49:06;;;;;;;5.68;2.70;;;;;;;28.82;43.35;99127.16;4491506;31;32464;-75
2023/08/01 07:51:34;;;;;;;7.43;2.70;;;;;;;28.88;44.09;99130.47;4494714;31;34415;-76
2023/08/01 07:54:02;;;;;;;7.60;2.90;;;;;;;28.83;43.38;99122.66;4494399;31;34083;-75
2023/08/01 07:56:29;;;;;;;6.20;2.83;;;;;;;29.07;43.57;99120.81;4497816;31;34530;-75
2023/08/01 07:58:57;;;;;;;7.65;2.70;;;;;;;29.49;41.32;99111.91;4480578;31;34587;-76
2023/08/01 08:01:24;;;;;;;7.57;3.10;;;;;;;29.89;40.64;99109.28;4498450;31;34594;-76
2023/08/01 08:03:53;;;;;;;7.05;2.67;;;;;;;29.74;40.96;99110.84;4492644;31;33125;-76
2023/08/01 08:06:24;;;;;;;7.37;2.70;;;;;;;29.93;41.31;99109.06;4490191;31;33612;-76
2023/08/01 08:08:51;;;;;;;6.53;2.90;;;;;;;29.73;40.85;99099.31;4483881;31;33324;-76
2023/08/01 08:11:19;;;;;;;6.75;2.62;;;;;;;29.69;40.85;99102.13;4492349;31;34135;-75
2023/08/01 08:13:46;;;;;;;6.25;2.87;;;;;;;30.07;40.17;99104.91;4498290;31;33218;-76
2023/08/01 08:16:14;;;;;;;6.53;2.97;;;;;;;30.12;40.43;99105.56;4498047;31;34170;-76
2023/08/01 08:18:42;;;;;;;6.40;2.95;;;;;;;29.91;40.50;99108.28;4497174;31;33537;-76
2023/08/01 08:21:10;;;;;;;7.55;2.85;;;;;;;29.96;39.75;99100.94;4497887;31;34555;-76
2023/08/01 08:23:38;;;;;;;7.05;2.85;;;;;;;30.22;40.54;99096.19;4483559;31;31897;-76
2023/08/01 08:26:06;;;;;;;7.62;3.12;;;;;;;30.49;40.10;99104.72;4483586;31;32164;-76
2023/08/01 08:28:34;;;;;;;8.65;3.20;;;;;;;30.58;38.56;99104.28;4495406;31;33664;-76
2023/08/01 08:31:02;;;;;;;7.35;2.95;;;;;;;30.12;39.57;99094.87;4494676;31;33892;-76
2023/08/01 08:33:30;;;;;;;6.78;3.05;;;;;;;30.52;40.01;99098.34;4483967;31;33295;-76
2023/08/01 08:35:57;;;;;;;6.18;2.72;;;;;;;30.77;39.36;99098.88;4494363;31;34364;-76
2023/08/01 08:38:25;;;;;;;6.37;2.72;;;;;;;31.13;37.88;99089.97;4487051;31;33717;-76
2023/08/01 08:41:09;;;;;;;6.50;2.70;;;;;;;31.14;38.61;99091.72;4492956;31;33495;-76
2023/08/01 08:43:37;;;;;;;5.40;2.67;;;;;;;31.72;36.95;99087.81;4493916;31;32873;-76
2023/08/01 08:46:05;;;;;;;4.53;2.20;;;;;;;32.04;36.16;99081.69;4483386;31;34541;-76
2023/08/01 08:48:33;;;;;;;4.00;2.03;;;;;;;32.28;34.92;99077.66;4474543;31;33663;-80
2023/08/01 08:51:03;;;;;;;5.18;2.17;;;;;;;32.33;35.87;99080.91;4499112;31;33492;-76
2023/08/01 08:53:32;;;;;;;5.22;2.50;;;;;;;32.31;35.03;99080.16;4481431;31;33313;-76
2023/08/01 08:56:01;;;;;;;5.60;2.20;;;;;;;32.76;34.66;99080.34;4492134;31;34502;-77
2023/08/01 08:58:32;;;;;;;5.23;2.07;;;;;;;32.95;33.83;99074.72;4485437;31;33136;-75
2023/08/01 09:01:00;;;;;;;5.90;2.40;;;;;;;33.29;33.27;99064.72;4497049;31;33553;-74
2023/08/01 09:03:28;;;;;;;5.12;2.40;;;;;;;33.09;33.66;99064.06;4493005;31;32962;-76
2023/08/01 09:06:27;;;;;;;4.55;2.25;;;;;;;33.41;33.45;99050.53;4492672;31;33512;-75
2023/08/01 09:09:09;;;;;;;4.53;2.30;;;;;;;33.62;32.02;99052.84;4481865;31;34314;-77
2023/08/01 09:11:46;;;;;;;6.15;2.47;;;;;;;33.34;32.42;99051.88;4486485;31;33986;-76
2023/08/01 09:14:14;;;;;;;4.97;2.40;;;;;;;33.93;32.20;99050.94;4483928;31;31875;-76
2023/08/01 09:16:43;;;;;;;4.78;2.30;;;;;;;34.04;31.73;99049.31;4469168;31;34156;-76
2023/08/01 09:19:14;;;;;;;5.07;2.20;;;;;;;34.43;31.17;99044.16;4492279;31;34630;-76
2023/08/01 09:21:41;;;;;;;6.60;2.45;;;;;;;33.98;31.86;99038.06;4487119;31;34149;-76
2023/08/01 09:24:27;;;;;;;6.55;2.40;;;;;;;34.16;31.35;99026.19;4485312;31;33172;-76
2023/08/01 09:27:03;;;;;;;5.50;2.40;;;;;;;33.87;31.80;99036.94;4483257;31;33165;-76
2023/08/01 09:29:34;;;;;;;5.10;2.33;;;;;;;33.48;32.29;99029.53;4488190;31;33248;-77
2023/08/01 09:32:11;;;;;;;6.07;2.75;;;;;;;33.45;32.83;99025.22;4476632;31;33357;-77
2023/08/01 09:34:39;;;;;;;6.45;2.90;;;;;;;33.49;31.89;99012.47;4492567;31;32634;-78
2023/08/01 09:37:07;;;;;;;5.28;2.55;;;;;;;33.64;31.41;99018.75;4493636;31;34224;-77
2023/08/01 09:39:34;;;;;;;5.80;2.35;;;;;;;33.44;31.20;99018.13;4498197;31;33430;-76
2023/08/01 09:42:02;;;;;;;4.68;2.20;;;;;;;33.33;30.04;99019.75;4493119;31;33217;-77
2023/08/01 09:44:30;;;;;;;5.72;2.50;;;;;;;33.26;31.20;99025.50;4494819;31;33319;-78
2023/08/01 09:46:59;;;;;;;5.40;2.22;;;;;;;33.58;30.48;99016.41;4488091;31;34624;-78
2023/08/01 09:49:28;;;;;;;6.28;2.55;;;;;;;33.43;31.04;99020.91;4490083;31;33600;-77
2023/08/01 09:51:57;;;;;;;6.00;2.20;;;;;;;33.55;31.06;99011.22;4474263;31;34112;-77
2023/08/01 09:54:24;;;;;;;5.62;2.08;;;;;;;33.22;30.66;99006.97;4489247;31;33708;-76
2023/08/01 09:56:54;;;;;;;5.47;2.20;;;;;;;33.30;29.59;99010.06;4489356;31;33865;-77
2023/08/01 09:59:23;;;;;;;4.95;2.20;;;;;;;33.74;29.95;98997.53;4489304;31;34432;-76
2023/08/01 10:01:52;;;;;;;4.33;2.10;;;;;;;33.66;29.58;98998.00;4490311;31;34359;-76
2023/08/01 10:04:23;;;;;;;3.70;1.95;;;;;;;33.61;29.75;98990.22;4492406;31;33903;-77
2023/08/01 10:06:57;;;;;;;5.50;2.03;;;;;;;33.91;29.12;98994.63;4487992;31;34300;-78
2023/08/01 10:09:26;;;;;;;4.97;2.37;;;;;;;34.15;29.55;98985.91;4491207;31;33331;-76
2023/08/01 10:11:56;;;;;;;5.22;2.15;;;;;;;32.95;29.92;98977.31;4481001;31;34192;-77
2023/08/01 10:14:25;;;;;;;4.05;1.80;;;;;;;33.63;29.68;98974.03;4486733;31;32029;-76
2023/08/01 10:16:53;;;;;;;5.43;2.33;;;;;;;33.43;28.38;98977.94;4489985;31;34141;-76
2023/08/01 10:19:22;;;;;;;4.40;2.20;;;;;;;32.93;29.28;98974.72;4477465;31;33467;-77
2023/08/01 10:21:50;;;;;;;5.78;2.40;;;;;;;33.48;28.97;98963.28;4476894;31;34565;-76
2023/08/01 10:24:23;;;;;;;5.32;2.20;;;;;;;33.05;29.05;98963.25;4483628;32;33202;-76
2023/08/01 10:26:50;;;;;;;4.10;2.10;;;;;;;32.98;29.65;98966.41;4490132;31;32916;-76
2023/08/01 10:29:18;;;;;;;4.82;2.33;;;;;;;32.90;30.14;98956.13;4484553;31;33054;-77
2023/08/01 10:31:53;;;;;;;4.90;2.03;;;;;;;33.38;29.04;98959.47;4486404;31;33560;-77
2023/08/01 10:34:23;;;;;;;4.60;2.10;;;;;;;33.53;29.45;98951.38;4486338;31;31887;-77
2023/08/01 10:36:55;;;;;;;5.93;1.80;;;;;;;33.85;28.49;98960.09;4489023;31;32293;-77
2023/08/01 10:39:24;;;;;;;3.90;2.00;;;;;;;32.68;27.94;98943.16;4483734;31;33501;-77
2023/08/01 10:42:00;;;;;;;4.60;2.00;;;;;;;33.53;27.61;98951.38;4483556;31;33500;-76
2023/08/01 10:44:28;;;;;;;4.82;1.75;;;;;;;32.81;27.92;98943.28;4485282;31;32725;-77
2023/08/01 10:46:56;;;;;;;5.93;2.10;;;;;;;32.59;28.26;98949.94;4474785;32;34362;-77
2023/08/01 10:49:41;;;;;;;4.10;1.98;;;;;;;32.85;27.83;98944.81;4482810;32;33224;-77
2023/08/01 10:52:27;;;;;;;5.65;2.12;;;;;;;32.84;28.79;98930.56;4495731;31;32414;-76
2023/08/01 10:55:01;;;;;;;4.82;2.15;;;;;;;33.22;28.83;98926.47;4490577;31;33441;-76
2023/08/01 10:57:31;;;;;;;3.97;1.90;;;;;;;32.90;28.48;98926.63;4486900;31;33848;-76
2023/08/01 10:59:59;;;;;;;4.95;2.05;;;;;;;32.65;28.68;98912.03;4484753;31;33872;-77
2023/08/01 11:02:28;;;;;;;4.97;2.13;;;;;;;32.45;29.56;98920.34;4501105;31;33744;-77
2023/08/01 11:05:00;;;;;;;5.37;1.98;;;;;;;32.51;29.67;98920.00;4489546;31;33126;-76
2023/08/01 11:07:28;;;;;;;3.62;1.73;;;;;;;32.68;29.08;98908.28;4493773;31;33340;-76
2023/08/01 11:10:07;;;;;;;4.62;2.00;;;;;;;32.32;30.13;98899.66;4489963;31;34454;-76
2023/08/01 11:12:43;;;;;;;4.43;1.80;;;;;;;32.71;29.36;98900.06;4487578;31;33021;-78
2023/08/01 11:15:12;;;;;;;5.20;2.00;;;;;;;33.04;28.17;98904.31;4489757;31;33354;-75
2023/08/01 11:17:41;;;;;;;3.53;1.80;;;;;;;32.63;27.27;98902.34;4508653;31;34490;-78
2023/08/01 11:20:11;;;;;;;5.07;1.98;;;;;;;32.83;27.85;98893.09;4488794;31;33272;-76
2023/08/01 11:22:49;;;;;;;4.85;1.77;;;;;;;32.49;28.61;98884.38;4492473;31;33425;-76
2023/08/01 11:25:17;;;;;;;4.55;1.70;;;;;;;32.47;28.55;98880.91;4488188;31;33092;-76
2023/08/01 11:27:45;;;;;;;4.78;1.98;;;;;;;32.88;28.60;98877.59;4492947;31;34384;-76
2023/08/01 11:30:12;;;;;;;4.37;1.90;;;;;;;32.75;28.63;98884.66;4490631;31;33841;-77
2023/08/01 11:32:40;;;;;;;4.07;1.70;;;;;;;32.64;27.74;98888.84;4480585;31;33701;-76
2023/08/01 11:35:08;;;;;;;4.62;1.92;;;;;;;32.71;27.98;98868.75;4489493;31;33081;-77
2023/08/01 11:37:36;;;;;;;4.47;1.87;;;;;;;32.63;28.47;98860.31;4483312;31;33565;-77
2023/08/01 11:40:04;;;;;;;4.82;1.80;;;;;;;32.43;28.99;98858.81;4487955;31;35019;-77